sensor_id;sensor_type;location;lat;lon;timestamp;P1;durP1;ratioP1;P2;durP2;ratioP2
65150;SDS011;51918;51.856;0.150;2022-09-29T00:06:15;6.97;;;2.17;;
65150;SDS011;51918;51.856;0.150;2022-09-29T00:11:18;6.40;;;2.10;;
65150;SDS011;51918;51.856;0.150;2022-09-29T00:21:19;4.47;;;1.90;;
65150;SDS011;51918;51.856;0.150;2022-09-29T00:26:22;4.28;;;2.20;;
65150;SDS011;51918;51.856;0.150;2022-09-29T00:31:24;6.45;;;2.60;;
65150;SDS011;51918;51.856;0.150;2022-09-29T00:36:26;4.35;;;1.98;;
65150;SDS011;51918;51.856;0.150;2022-09-29T00:41:29;4.53;;;2.00;;
65150;SDS011;51918;51.856;0.150;2022-09-29T00:46:41;6.80;;;2.20;;
65150;SDS011;51918;51.856;0.150;2022-09-29T00:51:46;5.82;;;2.38;;
65150;SDS011;51918;51.856;0.150;2022-09-29T00:56:51;6.00;;;3.15;;
65150;SDS011;51918;51.856;0.150;2022-09-29T01:01:52;6.03;;;2.58;;
65150;SDS011;51918;51.856;0.150;2022-09-29T01:06:54;5.38;;;2.63;;
65150;SDS011;51918;51.856;0.150;2022-09-29T01:11:57;4.80;;;2.42;;
65150;SDS011;51918;51.856;0.150;2022-09-29T01:16:59;5.55;;;2.67;;
65150;SDS011;51918;51.856;0.150;2022-09-29T01:22:02;5.38;;;3.13;;
65150;SDS011;51918;51.856;0.150;2022-09-29T01:27:18;5.85;;;2.95;;
65150;SDS011;51918;51.856;0.150;2022-09-29T01:32:34;6.93;;;3.70;;
65150;SDS011;51918;51.856;0.150;2022-09-29T01:37:45;6.07;;;2.88;;
65150;SDS011;51918;51.856;0.150;2022-09-29T01:42:58;5.13;;;2.67;;
65150;SDS011;51918;51.856;0.150;2022-09-29T01:48:05;4.97;;;2.88;;
65150;SDS011;51918;51.856;0.150;2022-09-29T01:53:10;7.43;;;2.90;;
65150;SDS011;51918;51.856;0.150;2022-09-29T01:58:15;6.25;;;3.00;;
65150;SDS011;51918;51.856;0.150;2022-09-29T02:03:21;6.10;;;2.75;;
65150;SDS011;51918;51.856;0.150;2022-09-29T02:08:27;6.93;;;3.03;;
65150;SDS011;51918;51.856;0.150;2022-09-29T02:13:31;8.52;;;2.83;;
65150;SDS011;51918;51.856;0.150;2022-09-29T02:18:41;6.07;;;3.13;;
65150;SDS011;51918;51.856;0.150;2022-09-29T02:23:47;5.38;;;3.17;;
65150;SDS011;51918;51.856;0.150;2022-09-29T02:28:48;5.75;;;3.25;;
65150;SDS011;51918;51.856;0.150;2022-09-29T02:33:50;6.57;;;3.25;;
65150;SDS011;51918;51.856;0.150;2022-09-29T02:38:52;5.65;;;3.05;;
65150;SDS011;51918;51.856;0.150;2022-09-29T02:44:16;6.22;;;2.70;;
65150;SDS011;51918;51.856;0.150;2022-09-29T02:49:44;7.45;;;3.00;;
65150;SDS011;51918;51.856;0.150;2022-09-29T02:54:59;7.63;;;3.00;;
65150;SDS011;51918;51.856;0.150;2022-09-29T03:00:10;5.50;;;2.83;;
65150;SDS011;51918;51.856;0.150;2022-09-29T03:05:15;6.63;;;3.03;;
65150;SDS011;51918;51.856;0.150;2022-09-29T03:10:17;6.57;;;3.30;;
65150;SDS011;51918;51.856;0.150;2022-09-29T03:15:18;6.72;;;3.15;;
65150;SDS011;51918;51.856;0.150;2022-09-29T03:20:20;5.05;;;2.60;;
65150;SDS011;51918;51.856;0.150;2022-09-29T03:25:20;7.43;;;3.38;;
65150;SDS011;51918;51.856;0.150;2022-09-29T03:30:21;6.50;;;3.58;;
65150;SDS011;51918;51.856;0.150;2022-09-29T03:35:23;6.05;;;3.40;;
65150;SDS011;51918;51.856;0.150;2022-09-29T03:40:23;5.82;;;2.80;;
65150;SDS011;51918;51.856;0.150;2022-09-29T03:45:24;5.82;;;3.08;;
65150;SDS011;51918;51.856;0.150;2022-09-29T03:50:26;6.53;;;3.30;;
65150;SDS011;51918;51.856;0.150;2022-09-29T03:55:26;4.75;;;3.13;;
65150;SDS011;51918;51.856;0.150;2022-09-29T04:00:27;6.07;;;2.78;;
65150;SDS011;51918;51.856;0.150;2022-09-29T04:05:29;6.50;;;3.28;;
65150;SDS011;51918;51.856;0.150;2022-09-29T04:15:30;5.37;;;3.07;;
65150;SDS011;51918;51.856;0.150;2022-09-29T04:20:32;7.20;;;2.85;;
65150;SDS011;51918;51.856;0.150;2022-09-29T04:30:33;5.57;;;3.15;;
65150;SDS011;51918;51.856;0.150;2022-09-29T04:35:35;5.53;;;3.25;;
65150;SDS011;51918;51.856;0.150;2022-09-29T04:40:35;5.80;;;2.80;;
65150;SDS011;51918;51.856;0.150;2022-09-29T04:45:36;6.97;;;3.28;;
65150;SDS011;51918;51.856;0.150;2022-09-29T04:50:38;6.18;;;3.40;;
65150;SDS011;51918;51.856;0.150;2022-09-29T04:55:38;6.13;;;3.40;;
65150;SDS011;51918;51.856;0.150;2022-09-29T05:00:39;4.85;;;2.97;;
65150;SDS011;51918;51.856;0.150;2022-09-29T05:05:41;10.07;;;3.67;;
65150;SDS011;51918;51.856;0.150;2022-09-29T05:10:41;8.60;;;4.07;;
65150;SDS011;51918;51.856;0.150;2022-09-29T05:15:42;9.45;;;3.88;;
65150;SDS011;51918;51.856;0.150;2022-09-29T05:20:44;8.73;;;3.95;;
65150;SDS011;51918;51.856;0.150;2022-09-29T05:25:44;8.05;;;4.32;;
65150;SDS011;51918;51.856;0.150;2022-09-29T05:30:45;8.75;;;3.95;;
65150;SDS011;51918;51.856;0.150;2022-09-29T05:35:47;6.13;;;3.42;;
65150;SDS011;51918;51.856;0.150;2022-09-29T05:40:47;9.85;;;4.18;;
65150;SDS011;51918;51.856;0.150;2022-09-29T05:45:48;11.57;;;4.50;;
65150;SDS011;51918;51.856;0.150;2022-09-29T05:50:50;7.45;;;3.72;;
65150;SDS011;51918;51.856;0.150;2022-09-29T05:55:50;7.82;;;4.00;;
65150;SDS011;51918;51.856;0.150;2022-09-29T06:00:51;8.35;;;3.78;;
65150;SDS011;51918;51.856;0.150;2022-09-29T06:05:53;9.27;;;3.78;;
65150;SDS011;51918;51.856;0.150;2022-09-29T06:10:54;6.60;;;3.70;;
65150;SDS011;51918;51.856;0.150;2022-09-29T06:15:56;6.28;;;3.88;;
65150;SDS011;51918;51.856;0.150;2022-09-29T06:21:02;5.82;;;3.47;;
65150;SDS011;51918;51.856;0.150;2022-09-29T06:26:04;6.70;;;3.90;;
65150;SDS011;51918;51.856;0.150;2022-09-29T06:31:07;7.20;;;4.00;;
65150;SDS011;51918;51.856;0.150;2022-09-29T06:36:14;7.93;;;3.95;;
65150;SDS011;51918;51.856;0.150;2022-09-29T06:41:16;7.32;;;3.70;;
65150;SDS011;51918;51.856;0.150;2022-09-29T06:46:17;8.02;;;3.40;;
65150;SDS011;51918;51.856;0.150;2022-09-29T06:51:19;7.28;;;3.83;;
65150;SDS011;51918;51.856;0.150;2022-09-29T06:56:21;6.85;;;3.80;;
65150;SDS011;51918;51.856;0.150;2022-09-29T07:01:21;6.88;;;3.67;;
65150;SDS011;51918;51.856;0.150;2022-09-29T07:06:23;7.60;;;3.63;;
65150;SDS011;51918;51.856;0.150;2022-09-29T07:16:24;7.90;;;3.83;;
65150;SDS011;51918;51.856;0.150;2022-09-29T07:21:26;8.27;;;3.55;;
65150;SDS011;51918;51.856;0.150;2022-09-29T07:26:27;7.88;;;4.40;;
65150;SDS011;51918;51.856;0.150;2022-09-29T07:31:27;6.75;;;3.35;;
65150;SDS011;51918;51.856;0.150;2022-09-29T07:36:29;6.15;;;3.75;;
65150;SDS011;51918;51.856;0.150;2022-09-29T07:46:30;7.50;;;4.10;;
65150;SDS011;51918;51.856;0.150;2022-09-29T07:51:32;7.38;;;3.67;;
65150;SDS011;51918;51.856;0.150;2022-09-29T08:01:33;7.07;;;3.20;;
65150;SDS011;51918;51.856;0.150;2022-09-29T08:06:35;6.45;;;3.13;;
65150;SDS011;51918;51.856;0.150;2022-09-29T08:11:36;3.17;;;2.10;;
65150;SDS011;51918;51.856;0.150;2022-09-29T08:16:38;4.68;;;1.95;;
65150;SDS011;51918;51.856;0.150;2022-09-29T08:21:40;4.35;;;2.63;;
65150;SDS011;51918;51.856;0.150;2022-09-29T08:26:40;5.75;;;2.35;;
65150;SDS011;51918;51.856;0.150;2022-09-29T08:31:41;5.18;;;2.70;;
65150;SDS011;51918;51.856;0.150;2022-09-29T08:36:43;5.18;;;2.75;;
65150;SDS011;51918;51.856;0.150;2022-09-29T08:41:48;6.18;;;2.70;;
65150;SDS011;51918;51.856;0.150;2022-09-29T08:46:52;3.72;;;2.08;;
65150;SDS011;51918;51.856;0.150;2022-09-29T08:52:00;4.75;;;2.13;;
65150;SDS011;51918;51.856;0.150;2022-09-29T08:57:05;4.00;;;1.98;;
65150;SDS011;51918;51.856;0.150;2022-09-29T09:02:19;5.38;;;2.22;;
65150;SDS011;51918;51.856;0.150;2022-09-29T09:07:36;7.22;;;2.30;;
65150;SDS011;51918;51.856;0.150;2022-09-29T09:12:56;3.55;;;2.35;;
65150;SDS011;51918;51.856;0.150;2022-09-29T09:18:12;4.72;;;2.63;;
65150;SDS011;51918;51.856;0.150;2022-09-29T09:23:26;6.90;;;3.00;;
65150;SDS011;51918;51.856;0.150;2022-09-29T09:28:39;4.45;;;2.80;;
65150;SDS011;51918;51.856;0.150;2022-09-29T09:33:45;6.05;;;2.70;;
65150;SDS011;51918;51.856;0.150;2022-09-29T09:38:52;3.97;;;2.67;;
65150;SDS011;51918;51.856;0.150;2022-09-29T09:44:00;5.82;;;3.00;;
65150;SDS011;51918;51.856;0.150;2022-09-29T09:49:05;4.80;;;2.78;;
65150;SDS011;51918;51.856;0.150;2022-09-29T09:54:19;5.18;;;2.95;;
65150;SDS011;51918;51.856;0.150;2022-09-29T09:59:30;4.20;;;2.97;;
65150;SDS011;51918;51.856;0.150;2022-09-29T10:04:38;6.47;;;2.88;;
65150;SDS011;51918;51.856;0.150;2022-09-29T10:09:40;4.95;;;2.72;;
65150;SDS011;51918;51.856;0.150;2022-09-29T10:14:41;3.95;;;2.67;;
65150;SDS011;51918;51.856;0.150;2022-09-29T10:19:56;5.07;;;3.00;;
65150;SDS011;51918;51.856;0.150;2022-09-29T10:25:06;4.68;;;2.80;;
65150;SDS011;51918;51.856;0.150;2022-09-29T10:30:15;3.97;;;1.98;;
65150;SDS011;51918;51.856;0.150;2022-09-29T10:35:19;3.90;;;2.20;;
65150;SDS011;51918;51.856;0.150;2022-09-29T10:40:24;5.05;;;2.03;;
65150;SDS011;51918;51.856;0.150;2022-09-29T10:45:25;4.03;;;2.30;;
65150;SDS011;51918;51.856;0.150;2022-09-29T10:50:27;4.15;;;2.20;;
65150;SDS011;51918;51.856;0.150;2022-09-29T10:55:31;4.70;;;2.30;;
65150;SDS011;51918;51.856;0.150;2022-09-29T11:00:34;4.75;;;2.03;;
65150;SDS011;51918;51.856;0.150;2022-09-29T11:05:37;4.38;;;2.03;;
65150;SDS011;51918;51.856;0.150;2022-09-29T11:10:39;4.03;;;2.25;;
65150;SDS011;51918;51.856;0.150;2022-09-29T11:15:40;2.08;;;1.48;;
65150;SDS011;51918;51.856;0.150;2022-09-29T11:20:40;4.88;;;1.98;;
65150;SDS011;51918;51.856;0.150;2022-09-29T11:25:47;4.63;;;1.75;;
65150;SDS011;51918;51.856;0.150;2022-09-29T11:31:19;3.78;;;1.92;;
65150;SDS011;51918;51.856;0.150;2022-09-29T11:36:29;2.63;;;1.45;;
65150;SDS011;51918;51.856;0.150;2022-09-29T11:41:49;3.95;;;1.70;;
65150;SDS011;51918;51.856;0.150;2022-09-29T11:47:04;2.58;;;1.30;;
65150;SDS011;51918;51.856;0.150;2022-09-29T11:52:20;2.72;;;1.20;;
65150;SDS011;51918;51.856;0.150;2022-09-29T11:57:43;2.80;;;1.20;;
65150;SDS011;51918;51.856;0.150;2022-09-29T12:03:15;3.63;;;1.33;;
65150;SDS011;51918;51.856;0.150;2022-09-29T12:08:25;4.20;;;1.60;;
65150;SDS011;51918;51.856;0.150;2022-09-29T12:13:43;2.72;;;1.67;;
65150;SDS011;51918;51.856;0.150;2022-09-29T12:18:51;6.18;;;2.22;;
65150;SDS011;51918;51.856;0.150;2022-09-29T12:23:55;5.70;;;1.70;;
65150;SDS011;51918;51.856;0.150;2022-09-29T12:28:59;3.30;;;1.63;;
65150;SDS011;51918;51.856;0.150;2022-09-29T12:34:05;4.63;;;2.30;;
65150;SDS011;51918;51.856;0.150;2022-09-29T12:39:15;3.85;;;1.60;;
65150;SDS011;51918;51.856;0.150;2022-09-29T12:44:26;2.63;;;1.38;;
65150;SDS011;51918;51.856;0.150;2022-09-29T12:49:32;3.53;;;1.40;;
65150;SDS011;51918;51.856;0.150;2022-09-29T12:54:41;3.28;;;1.60;;
65150;SDS011;51918;51.856;0.150;2022-09-29T12:59:48;4.80;;;1.55;;
65150;SDS011;51918;51.856;0.150;2022-09-29T13:05:03;2.22;;;1.20;;
65150;SDS011;51918;51.856;0.150;2022-09-29T13:10:21;11.52;;;2.05;;
65150;SDS011;51918;51.856;0.150;2022-09-29T13:15:50;4.20;;;1.33;;
65150;SDS011;51918;51.856;0.150;2022-09-29T13:21:00;2.22;;;1.02;;
65150;SDS011;51918;51.856;0.150;2022-09-29T13:26:11;1.95;;;0.90;;
65150;SDS011;51918;51.856;0.150;2022-09-29T13:31:35;3.67;;;1.35;;
65150;SDS011;51918;51.856;0.150;2022-09-29T13:36:38;2.13;;;1.13;;
65150;SDS011;51918;51.856;0.150;2022-09-29T13:41:40;2.30;;;1.20;;
65150;SDS011;51918;51.856;0.150;2022-09-29T13:46:42;3.00;;;1.20;;
65150;SDS011;51918;51.856;0.150;2022-09-29T13:51:44;5.15;;;1.35;;
65150;SDS011;51918;51.856;0.150;2022-09-29T13:56:47;3.83;;;2.17;;
65150;SDS011;51918;51.856;0.150;2022-09-29T14:01:50;3.15;;;1.00;;
65150;SDS011;51918;51.856;0.150;2022-09-29T14:06:52;2.47;;;1.02;;
65150;SDS011;51918;51.856;0.150;2022-09-29T14:11:57;1.85;;;0.98;;
65150;SDS011;51918;51.856;0.150;2022-09-29T14:17:03;3.35;;;1.30;;
65150;SDS011;51918;51.856;0.150;2022-09-29T14:27:46;2.15;;;1.08;;
65150;SDS011;51918;51.856;0.150;2022-09-29T14:33:00;2.70;;;1.15;;
65150;SDS011;51918;51.856;0.150;2022-09-29T14:38:03;2.35;;;1.00;;
65150;SDS011;51918;51.856;0.150;2022-09-29T14:43:10;3.28;;;0.85;;
65150;SDS011;51918;51.856;0.150;2022-09-29T14:48:15;1.83;;;1.00;;
65150;SDS011;51918;51.856;0.150;2022-09-29T14:53:25;3.38;;;1.23;;
65150;SDS011;51918;51.856;0.150;2022-09-29T14:58:38;5.15;;;1.33;;
65150;SDS011;51918;51.856;0.150;2022-09-29T15:03:55;3.88;;;1.25;;
65150;SDS011;51918;51.856;0.150;2022-09-29T15:08:58;1.70;;;1.00;;
65150;SDS011;51918;51.856;0.150;2022-09-29T15:14:00;3.13;;;1.10;;
65150;SDS011;51918;51.856;0.150;2022-09-29T15:19:07;1.65;;;0.85;;
65150;SDS011;51918;51.856;0.150;2022-09-29T15:24:20;1.60;;;0.80;;
65150;SDS011;51918;51.856;0.150;2022-09-29T15:29:35;2.08;;;0.90;;
65150;SDS011;51918;51.856;0.150;2022-09-29T15:34:37;1.63;;;0.90;;
65150;SDS011;51918;51.856;0.150;2022-09-29T15:39:42;2.25;;;0.70;;
65150;SDS011;51918;51.856;0.150;2022-09-29T15:44:45;1.25;;;0.70;;
65150;SDS011;51918;51.856;0.150;2022-09-29T15:49:51;1.80;;;0.70;;
65150;SDS011;51918;51.856;0.150;2022-09-29T15:54:53;2.30;;;0.77;;
65150;SDS011;51918;51.856;0.150;2022-09-29T15:59:55;1.98;;;0.60;;
65150;SDS011;51918;51.856;0.150;2022-09-29T16:10:00;1.30;;;0.57;;
65150;SDS011;51918;51.856;0.150;2022-09-29T16:15:04;2.38;;;0.70;;
65150;SDS011;51918;51.856;0.150;2022-09-29T16:20:10;1.00;;;0.70;;
65150;SDS011;51918;51.856;0.150;2022-09-29T16:25:20;1.63;;;0.50;;
65150;SDS011;51918;51.856;0.150;2022-09-29T16:30:24;1.50;;;0.60;;
65150;SDS011;51918;51.856;0.150;2022-09-29T16:35:39;3.25;;;1.02;;
65150;SDS011;51918;51.856;0.150;2022-09-29T16:40:46;4.13;;;1.10;;
65150;SDS011;51918;51.856;0.150;2022-09-29T16:45:47;1.65;;;0.80;;
65150;SDS011;51918;51.856;0.150;2022-09-29T16:50:51;1.52;;;0.70;;
65150;SDS011;51918;51.856;0.150;2022-09-29T16:55:54;1.55;;;0.65;;
65150;SDS011;51918;51.856;0.150;2022-09-29T17:00:56;1.90;;;0.82;;
65150;SDS011;51918;51.856;0.150;2022-09-29T17:10:59;3.30;;;1.10;;
65150;SDS011;51918;51.856;0.150;2022-09-29T17:16:00;3.35;;;1.05;;
65150;SDS011;51918;51.856;0.150;2022-09-29T17:21:03;2.00;;;0.80;;
65150;SDS011;51918;51.856;0.150;2022-09-29T17:26:04;2.53;;;0.80;;
65150;SDS011;51918;51.856;0.150;2022-09-29T17:31:09;3.50;;;1.13;;
65150;SDS011;51918;51.856;0.150;2022-09-29T17:36:12;2.20;;;0.98;;
65150;SDS011;51918;51.856;0.150;2022-09-29T17:41:13;2.20;;;0.98;;
65150;SDS011;51918;51.856;0.150;2022-09-29T17:46:14;2.70;;;0.93;;
65150;SDS011;51918;51.856;0.150;2022-09-29T17:51:16;2.70;;;1.00;;
65150;SDS011;51918;51.856;0.150;2022-09-29T17:56:18;1.80;;;0.80;;
65150;SDS011;51918;51.856;0.150;2022-09-29T18:01:22;1.67;;;0.70;;
65150;SDS011;51918;51.856;0.150;2022-09-29T18:06:24;2.17;;;0.90;;
65150;SDS011;51918;51.856;0.150;2022-09-29T18:11:25;2.17;;;0.90;;
65150;SDS011;51918;51.856;0.150;2022-09-29T18:16:26;2.90;;;0.82;;
65150;SDS011;51918;51.856;0.150;2022-09-29T18:21:28;2.38;;;0.80;;
65150;SDS011;51918;51.856;0.150;2022-09-29T18:26:28;2.75;;;1.00;;
65150;SDS011;51918;51.856;0.150;2022-09-29T18:31:29;3.35;;;1.10;;
65150;SDS011;51918;51.856;0.150;2022-09-29T18:36:31;3.80;;;1.10;;
65150;SDS011;51918;51.856;0.150;2022-09-29T18:41:31;2.60;;;1.10;;
65150;SDS011;51918;51.856;0.150;2022-09-29T18:46:32;2.58;;;0.93;;
65150;SDS011;51918;51.856;0.150;2022-09-29T18:51:34;4.03;;;1.80;;
65150;SDS011;51918;51.856;0.150;2022-09-29T18:56:34;6.93;;;2.42;;
65150;SDS011;51918;51.856;0.150;2022-09-29T19:01:35;6.47;;;2.50;;
65150;SDS011;51918;51.856;0.150;2022-09-29T19:06:37;7.75;;;2.63;;
65150;SDS011;51918;51.856;0.150;2022-09-29T19:11:37;7.30;;;2.42;;
65150;SDS011;51918;51.856;0.150;2022-09-29T19:16:38;6.72;;;2.25;;
65150;SDS011;51918;51.856;0.150;2022-09-29T19:21:40;10.50;;;3.20;;
65150;SDS011;51918;51.856;0.150;2022-09-29T19:26:40;10.45;;;3.78;;
65150;SDS011;51918;51.856;0.150;2022-09-29T19:31:41;8.27;;;3.03;;
65150;SDS011;51918;51.856;0.150;2022-09-29T19:36:43;6.47;;;2.45;;
65150;SDS011;51918;51.856;0.150;2022-09-29T19:41:43;6.07;;;2.20;;
65150;SDS011;51918;51.856;0.150;2022-09-29T19:46:44;4.60;;;2.00;;
65150;SDS011;51918;51.856;0.150;2022-09-29T19:51:46;7.85;;;2.40;;
65150;SDS011;51918;51.856;0.150;2022-09-29T19:56:48;5.15;;;2.38;;
65150;SDS011;51918;51.856;0.150;2022-09-29T20:01:50;3.08;;;1.65;;
65150;SDS011;51918;51.856;0.150;2022-09-29T20:06:52;5.75;;;1.83;;
65150;SDS011;51918;51.856;0.150;2022-09-29T20:11:53;3.10;;;1.42;;
65150;SDS011;51918;51.856;0.150;2022-09-29T20:16:54;5.85;;;1.75;;
65150;SDS011;51918;51.856;0.150;2022-09-29T20:21:57;2.90;;;1.50;;
65150;SDS011;51918;51.856;0.150;2022-09-29T20:26:57;3.03;;;1.60;;
65150;SDS011;51918;51.856;0.150;2022-09-29T20:31:58;4.45;;;2.05;;
65150;SDS011;51918;51.856;0.150;2022-09-29T20:37:00;4.28;;;1.73;;
65150;SDS011;51918;51.856;0.150;2022-09-29T20:42:01;3.88;;;1.80;;
65150;SDS011;51918;51.856;0.150;2022-09-29T20:47:01;5.03;;;2.03;;
65150;SDS011;51918;51.856;0.150;2022-09-29T20:52:03;5.05;;;1.85;;
65150;SDS011;51918;51.856;0.150;2022-09-29T20:57:04;4.05;;;2.20;;
65150;SDS011;51918;51.856;0.150;2022-09-29T21:02:05;3.63;;;2.00;;
65150;SDS011;51918;51.856;0.150;2022-09-29T21:07:07;4.03;;;1.80;;
65150;SDS011;51918;51.856;0.150;2022-09-29T21:12:07;3.65;;;1.65;;
65150;SDS011;51918;51.856;0.150;2022-09-29T21:17:08;4.07;;;1.63;;
65150;SDS011;51918;51.856;0.150;2022-09-29T21:22:10;5.38;;;2.13;;
65150;SDS011;51918;51.856;0.150;2022-09-29T21:27:10;5.80;;;2.00;;
65150;SDS011;51918;51.856;0.150;2022-09-29T21:32:11;4.72;;;2.17;;
65150;SDS011;51918;51.856;0.150;2022-09-29T21:37:13;4.72;;;2.17;;
65150;SDS011;51918;51.856;0.150;2022-09-29T21:42:14;5.13;;;2.28;;
65150;SDS011;51918;51.856;0.150;2022-09-29T21:47:14;6.03;;;1.75;;
65150;SDS011;51918;51.856;0.150;2022-09-29T21:52:16;3.50;;;1.83;;
65150;SDS011;51918;51.856;0.150;2022-09-29T21:57:17;5.13;;;1.80;;
65150;SDS011;51918;51.856;0.150;2022-09-29T22:02:17;3.85;;;1.60;;
65150;SDS011;51918;51.856;0.150;2022-09-29T22:07:19;4.13;;;1.60;;
65150;SDS011;51918;51.856;0.150;2022-09-29T22:12:20;4.05;;;1.45;;
65150;SDS011;51918;51.856;0.150;2022-09-29T22:17:20;4.43;;;1.63;;
65150;SDS011;51918;51.856;0.150;2022-09-29T22:22:22;3.10;;;1.73;;
65150;SDS011;51918;51.856;0.150;2022-09-29T22:27:23;4.30;;;1.55;;
65150;SDS011;51918;51.856;0.150;2022-09-29T22:32:23;3.35;;;1.50;;
65150;SDS011;51918;51.856;0.150;2022-09-29T22:37:25;4.22;;;1.67;;
65150;SDS011;51918;51.856;0.150;2022-09-29T22:42:26;3.03;;;1.60;;
65150;SDS011;51918;51.856;0.150;2022-09-29T22:47:26;4.20;;;1.70;;
65150;SDS011;51918;51.856;0.150;2022-09-29T22:52:28;3.53;;;1.90;;
65150;SDS011;51918;51.856;0.150;2022-09-29T22:57:29;3.95;;;1.98;;
65150;SDS011;51918;51.856;0.150;2022-09-29T23:02:29;3.65;;;2.00;;
65150;SDS011;51918;51.856;0.150;2022-09-29T23:07:31;4.90;;;2.30;;
65150;SDS011;51918;51.856;0.150;2022-09-29T23:12:32;4.20;;;2.22;;
65150;SDS011;51918;51.856;0.150;2022-09-29T23:17:33;5.05;;;2.20;;
65150;SDS011;51918;51.856;0.150;2022-09-29T23:22:35;4.50;;;2.28;;
65150;SDS011;51918;51.856;0.150;2022-09-29T23:27:35;3.70;;;2.22;;
65150;SDS011;51918;51.856;0.150;2022-09-29T23:32:36;5.32;;;2.50;;
65150;SDS011;51918;51.856;0.150;2022-09-29T23:37:38;3.58;;;1.92;;
65150;SDS011;51918;51.856;0.150;2022-09-29T23:42:38;6.53;;;2.25;;
65150;SDS011;51918;51.856;0.150;2022-09-29T23:47:39;4.22;;;2.30;;
65150;SDS011;51918;51.856;0.150;2022-09-29T23:52:41;3.50;;;2.20;;
65150;SDS011;51918;51.856;0.150;2022-09-29T23:57:41;5.13;;;3.05;;
